Vonore, Tennessee
Current Conditions -  °F | °C
As of 9:53 PM on Thursday 18 Dec 2014 (Local Time) from KTYS Reporting Station
Overcast Overcast  
Wind Chill: 42°   Ceiling: 6000
Heat Index: 42°   Visibility: 10mi
Dew Point: 32°   Wind: 0mph
Humidity: 67%   Direction: NA
Pressure: 30.16"   Gusts: NA
Location:  35.59°N, 84.24°W
Report Text: KTYS 190253Z 00000KT 10SM OVC060 06/00 A3016 RMK AO2 SLP218 T00560000 50000
Loading
Personal Weather Stations






























Interactive Weather Map New forecast layout! Learn more

10-Day Weather Forecast

Advertisements
Track Severe Weather on mobile